เทศบาลนครลำปาง, ประเทศไทย

11:42 AM ICT วัน สิงหาคม 31, 2015 (GMT +0700)
Chiang Mai International | | Change Station
CLOSE
Current Station
Airport
Location: Chiang Mai,
Elevation: 1030 ft
Nearby Weather Stations

Elev 1030 ft 18.77 °N, 98.97 °E | Updated 12 minutes ago

Mostly Cloudy
มีเมฆคลุมเป็นส่วนใหญ่
86 ฟาเรนไฮน์
Feels Like 90 ฟาเรนไฮน์
N
4
ลม ความผันแปร ลม from ทางทิศตะวันออกและทิศตะวันออกเฉียงใต้

วันนี้
High -- | Low -- ฟาเรนไฮน์
--% Chance of Precip.
Yesterday
High -- | Low -- ฟาเรนไฮน์
Precip. -- นิ้ว
6:07 AM 6:37 PM
พระจันทร์เต็มดวง, 97% visible
ความดัน 29.89 นิ้ว
ทัศนวิสัย 6.2 ไมล์
เมฆ มีเมฆคลุมเป็นส่วนใหญ่ 3500 ft
ดัชนีความร้อน 90 ฟาเรนไฮน์
อุณหภูมิที่อากาศอาจจับตัวเป็นหยาดน้ำค้าง 70 ฟาเรนไฮน์
ความชื้น 58%
Rainfall 0.00 นิ้ว
Snow Depth Not available.
UV 9 out of 12
Pollen Not available.
Air Quality Not available.
Flu Activity Not available.
METAR VTCC 310430Z 12003KT 9999 BKN035 30/21 Q1012 A2988 NOSIG
ความดัน 29.89 นิ้ว
ทัศนวิสัย 6.2 ไมล์
เมฆ มีเมฆคลุมเป็นส่วนใหญ่ 3500 ft
ดัชนีความร้อน 90 ฟาเรนไฮน์
อุณหภูมิที่อากาศอาจจับตัวเป็นหยาดน้ำค้าง 70 ฟาเรนไฮน์
ความชื้น 58%
Rainfall 0.00 นิ้ว
Snow Depth Not available.
UV 9 out of 12
Pollen Not available.
Air Quality Not available.
Flu Activity Not available.
METAR VTCC 310430Z 12003KT 9999 BKN035 30/21 Q1012 A2988 NOSIG

10-Day Weather Forecast

×

Almanac

ดาราศาสตร์

Aug. 31, 2015 Rise Set
Actual Time
Civil Twilight
Nautical Twilight
Astronomical Twilight
Moon
Length Of Visible Light
ความยาวของวัน
Tomorrow will be .
, % of the Moon is Illuminated

Today's Extremes

Country Highs Country Lows

Community

WunderPhotos

Upload Photos

1,851,207 photos uploaded!

WunderBlogs® & News

Nearby

Air Quality

  Air Quality AQ Index Pollutant
Not available.

Snow Depth

Station Depth Elevation

Earthquake Activity

City Distance Mag. Time & Date
Minimum magnitude displayed is 2.5.

Coastal Water Temperatures

สถานที่ อุณหภูมิ

Stations

Nearby Weather Stations

Station Location Temp ลมหนาว อุณหภูมิที่อากาศอาจจับตัวเป็นหยาดน้ำค้าง ความชื้น ลม Precip. Elev ปรับปรุงล่าสุด Type